createdAt,value
2019-05-18T00:02:14.066Z,13.14
2019-05-18T00:04:46.067Z,13.16
2019-05-18T00:07:17.195Z,13.20
2019-05-18T00:09:48.269Z,13.22
2019-05-18T00:12:19.319Z,13.25
2019-05-18T00:14:50.483Z,13.28
2019-05-18T00:17:25.607Z,13.29
2019-05-18T00:19:56.882Z,13.32
2019-05-18T00:22:27.969Z,13.35
2019-05-18T00:24:59.074Z,13.37
2019-05-18T00:27:30.227Z,13.38
2019-05-18T00:30:01.391Z,13.39
2019-05-18T00:32:32.440Z,13.33
2019-05-18T00:35:04.291Z,13.30
2019-05-18T00:37:35.325Z,13.30
2019-05-18T00:40:07.909Z,13.33
2019-05-18T00:42:39.013Z,13.34
2019-05-18T00:45:10.269Z,13.35
2019-05-18T00:47:42.360Z,13.37
2019-05-18T00:50:15.409Z,13.38
2019-05-18T00:52:46.542Z,13.37
2019-05-18T00:55:17.603Z,13.38
2019-05-18T00:57:48.675Z,13.38
2019-05-18T01:00:20.152Z,13.39
2019-05-18T01:02:52.836Z,13.38
2019-05-18T01:05:24.739Z,13.37
2019-05-18T01:07:55.806Z,13.37
2019-05-18T01:10:26.869Z,13.38
2019-05-18T01:12:59.377Z,13.40
2019-05-18T01:15:31.961Z,13.37
2019-05-18T01:18:03.053Z,13.37
2019-05-18T01:20:35.041Z,13.36
2019-05-18T01:23:06.114Z,13.35
2019-05-18T01:25:37.978Z,13.36
2019-05-18T01:28:10.917Z,13.34
2019-05-18T01:30:42.023Z,13.35
2019-05-18T01:33:13.075Z,13.34
2019-05-18T01:35:44.969Z,13.34
2019-05-18T01:38:16.011Z,13.35
2019-05-18T01:40:47.125Z,13.34
2019-05-18T01:43:18.125Z,13.34
2019-05-18T01:45:50.149Z,13.33
2019-05-18T01:48:21.169Z,13.32
2019-05-18T01:50:53.096Z,13.29
2019-05-18T01:53:24.124Z,13.28
2019-05-18T01:55:55.475Z,13.26
2019-05-18T01:58:27.322Z,13.26
2019-05-18T02:00:58.515Z,13.27
2019-05-18T02:03:29.575Z,13.29
2019-05-18T02:06:00.692Z,13.31
2019-05-18T02:08:31.960Z,13.31
2019-05-18T02:11:03.109Z,13.33
2019-05-18T02:13:34.131Z,13.36
2019-05-18T02:16:05.187Z,13.39
2019-05-18T02:18:36.237Z,13.40
2019-05-18T02:21:07.339Z,13.38
2019-05-18T02:23:39.899Z,13.38
2019-05-18T02:26:11.021Z,13.36
2019-05-18T02:28:42.083Z,13.40
2019-05-18T02:31:16.273Z,13.44
2019-05-18T02:33:47.318Z,13.46
2019-05-18T02:36:18.695Z,13.49
2019-05-18T02:38:49.755Z,13.53
2019-05-18T02:41:21.642Z,13.50
2019-05-18T02:43:52.687Z,13.48
2019-05-18T02:46:23.765Z,13.45
2019-05-18T02:48:54.795Z,13.44
2019-05-18T02:51:25.998Z,13.46
2019-05-18T02:53:58.556Z,13.47
2019-05-18T02:56:29.819Z,13.43
2019-05-18T02:59:00.934Z,13.44
2019-05-18T03:01:32.301Z,13.36
2019-05-18T03:04:03.427Z,13.36
2019-05-18T03:06:34.695Z,13.36
2019-05-18T03:09:06.993Z,13.38
2019-05-18T03:11:38.087Z,13.40
2019-05-18T03:14:09.132Z,13.43
2019-05-18T03:16:40.379Z,13.48
2019-05-18T03:19:11.451Z,13.54
2019-05-18T03:21:42.598Z,13.59
2019-05-18T03:24:13.634Z,13.62
2019-05-18T03:26:44.710Z,13.69
2019-05-18T03:29:15.760Z,13.75
2019-05-18T03:31:46.856Z,13.83
2019-05-18T03:34:17.928Z,13.87
2019-05-18T03:36:49.036Z,13.90
2019-05-18T03:39:20.372Z,13.95
2019-05-18T03:41:52.232Z,13.99
2019-05-18T03:44:23.358Z,14.03
2019-05-18T03:46:54.403Z,14.08
2019-05-18T03:49:27.628Z,14.15
2019-05-18T03:51:59.089Z,14.22
2019-05-18T03:54:30.335Z,14.30
2019-05-18T03:57:01.447Z,14.34
2019-05-18T03:59:33.987Z,14.38
2019-05-18T04:02:05.055Z,14.43
2019-05-18T04:04:36.120Z,14.48
2019-05-18T04:07:09.481Z,14.51
2019-05-18T04:09:40.497Z,14.55
2019-05-18T04:12:11.569Z,14.59
2019-05-18T04:14:42.605Z,14.62
2019-05-18T04:17:13.714Z,14.66
2019-05-18T04:19:47.594Z,14.70
2019-05-18T04:22:21.474Z,14.75
2019-05-18T04:24:52.523Z,14.68
2019-05-18T04:27:23.569Z,14.70
2019-05-18T04:29:54.711Z,14.64
2019-05-18T04:32:25.786Z,14.57
2019-05-18T04:34:58.356Z,14.56
2019-05-18T04:37:30.282Z,14.61
2019-05-18T04:40:01.386Z,14.63
2019-05-18T04:42:34.079Z,14.68
2019-05-18T04:45:06.044Z,14.73
2019-05-18T04:47:37.141Z,14.82
2019-05-18T04:50:08.641Z,14.90
2019-05-18T04:52:40.499Z,14.98
2019-05-18T04:55:11.634Z,15.05
2019-05-18T04:57:42.719Z,15.02
2019-05-18T05:00:13.881Z,15.09
2019-05-18T05:02:44.937Z,15.06
2019-05-18T05:05:15.973Z,14.98
2019-05-18T05:07:48.974Z,15.09
2019-05-18T05:10:20.041Z,15.07
2019-05-18T05:12:54.767Z,15.03
2019-05-18T05:15:25.963Z,15.01
2019-05-18T05:17:57.123Z,15.05
2019-05-18T05:20:28.159Z,15.05
2019-05-18T05:22:59.333Z,15.13
2019-05-18T05:25:30.419Z,15.09
2019-05-18T05:28:01.483Z,15.16
2019-05-18T05:30:32.925Z,15.08
2019-05-18T05:33:04.057Z,15.04
2019-05-18T05:35:37.817Z,15.05
2019-05-18T05:38:09.172Z,15.05
2019-05-18T05:40:41.639Z,14.95
2019-05-18T05:43:15.108Z,14.88
2019-05-18T05:45:46.143Z,15.05
2019-05-18T05:48:17.242Z,14.92
2019-05-18T05:50:49.885Z,14.97
2019-05-18T05:53:21.824Z,15.03
2019-05-18T05:55:52.887Z,14.91
2019-05-18T05:58:25.545Z,14.99
2019-05-18T06:00:59.146Z,15.05
2019-05-18T06:03:31.882Z,15.05
2019-05-18T06:06:04.550Z,15.06
2019-05-18T06:08:37.252Z,15.01
2019-05-18T06:11:08.271Z,14.99
2019-05-18T06:13:39.356Z,15.05
2019-05-18T06:16:10.393Z,15.03
2019-05-18T06:18:44.638Z,15.12
2019-05-18T06:21:15.659Z,15.23
2019-05-18T06:23:47.563Z,15.25
2019-05-18T06:26:20.064Z,15.19
2019-05-18T06:28:51.150Z,15.19
2019-05-18T06:31:23.258Z,15.11
2019-05-18T06:33:54.378Z,15.04
2019-05-18T06:36:27.059Z,15.07
2019-05-18T06:38:58.303Z,15.21
2019-05-18T06:41:33.296Z,15.35
2019-05-18T06:44:05.993Z,15.41
2019-05-18T06:46:37.118Z,15.54
2019-05-18T06:49:11.203Z,15.75
2019-05-18T06:51:42.298Z,15.92
2019-05-18T06:54:13.323Z,16.02
2019-05-18T06:56:45.113Z,16.14
2019-05-18T06:59:17.446Z,16.36
2019-05-18T07:01:48.896Z,16.60
2019-05-18T07:04:20.138Z,16.86
2019-05-18T07:06:51.296Z,17.08
2019-05-18T07:09:22.337Z,17.26
2019-05-18T07:11:56.102Z,17.40
2019-05-18T07:14:26.918Z,17.39
2019-05-18T07:16:58.044Z,17.41
2019-05-18T07:19:29.097Z,17.34
2019-05-18T07:22:00.156Z,17.57
2019-05-18T07:24:32.676Z,17.80
2019-05-18T07:27:03.961Z,18.06
2019-05-18T07:29:35.102Z,18.29
2019-05-18T07:32:06.211Z,18.41
2019-05-18T07:34:37.274Z,18.26
2019-05-18T07:37:08.443Z,18.12
2019-05-18T07:39:41.144Z,18.28
2019-05-18T07:42:13.121Z,18.21
2019-05-18T07:44:44.213Z,18.24
2019-05-18T07:47:15.310Z,18.42
2019-05-18T07:49:46.553Z,18.45
2019-05-18T07:52:17.736Z,18.68
2019-05-18T07:54:50.342Z,18.49
2019-05-18T07:57:23.758Z,18.44
2019-05-18T07:59:54.799Z,18.61
2019-05-18T08:02:25.904Z,18.77
2019-05-18T08:04:56.946Z,18.37
2019-05-18T08:07:29.708Z,18.62
2019-05-18T08:10:01.653Z,18.48
2019-05-18T08:12:35.118Z,18.78
2019-05-18T08:15:12.364Z,18.71
2019-05-18T08:17:43.463Z,18.87
2019-05-18T08:20:14.962Z,18.97
2019-05-18T08:22:46.112Z,18.75
2019-05-18T08:25:17.353Z,18.84
2019-05-18T08:27:51.506Z,18.93
2019-05-18T08:30:24.675Z,18.81
2019-05-18T08:32:59.476Z,18.38
2019-05-18T08:35:31.070Z,18.25
2019-05-18T08:38:02.189Z,18.37
2019-05-18T08:40:40.355Z,18.32
2019-05-18T08:43:12.736Z,18.41
2019-05-18T08:45:45.730Z,18.49
2019-05-18T08:48:16.830Z,18.64
2019-05-18T08:50:51.047Z,18.45
2019-05-18T08:53:22.090Z,18.37
2019-05-18T08:55:53.106Z,18.34
2019-05-18T08:58:25.807Z,18.25
2019-05-18T09:00:56.962Z,18.00
2019-05-18T09:03:28.899Z,17.85
2019-05-18T09:05:59.870Z,17.74
2019-05-18T09:08:30.925Z,17.62
2019-05-18T09:11:01.963Z,17.47
2019-05-18T09:13:33.204Z,17.28
2019-05-18T09:16:04.226Z,17.23
2019-05-18T09:18:38.447Z,17.22
2019-05-18T09:21:09.467Z,17.18
2019-05-18T09:23:40.531Z,17.16
2019-05-18T09:26:11.610Z,17.11
2019-05-18T09:28:43.528Z,17.16
2019-05-18T09:31:14.566Z,17.01
2019-05-18T09:33:45.624Z,16.85
2019-05-18T09:36:17.058Z,16.65
2019-05-18T09:38:48.151Z,16.71
2019-05-18T09:41:20.681Z,16.79
2019-05-18T09:43:52.622Z,16.87
2019-05-18T09:46:24.429Z,16.84
2019-05-18T09:48:55.490Z,16.86
2019-05-18T09:51:26.515Z,16.96
2019-05-18T09:53:57.586Z,16.89
2019-05-18T09:56:28.643Z,16.79
2019-05-18T09:59:02.261Z,16.78
2019-05-18T10:01:33.294Z,16.64
2019-05-18T10:04:04.365Z,16.60
2019-05-18T10:06:35.415Z,16.62
2019-05-18T10:09:09.161Z,16.60
2019-05-18T10:11:40.207Z,16.55
2019-05-18T10:14:12.122Z,16.29
2019-05-18T10:16:44.766Z,16.03
2019-05-18T10:19:15.877Z,16.19
2019-05-18T10:21:46.938Z,16.25
2019-05-18T10:24:18.016Z,16.20
2019-05-18T10:26:49.055Z,16.15
2019-05-18T10:29:20.937Z,16.13
2019-05-18T10:31:51.976Z,16.16
2019-05-18T10:34:23.013Z,16.00
2019-05-18T10:36:55.675Z,15.81
2019-05-18T10:39:26.697Z,15.54
2019-05-18T10:41:57.784Z,15.74
2019-05-18T10:44:28.932Z,15.56
2019-05-18T10:47:01.782Z,15.56
2019-05-18T10:49:32.831Z,15.63
2019-05-18T10:52:03.889Z,15.56
2019-05-18T10:54:34.925Z,15.53
2019-05-18T10:57:05.954Z,15.47
2019-05-18T10:59:38.512Z,15.53
2019-05-18T11:02:10.380Z,15.59
2019-05-18T11:04:44.521Z,15.54
2019-05-18T11:07:15.594Z,15.55
2019-05-18T11:09:46.678Z,15.55
2019-05-18T11:12:17.780Z,15.53
2019-05-18T11:14:48.809Z,15.45
2019-05-18T11:17:20.805Z,15.25
2019-05-18T11:19:51.899Z,15.21
2019-05-18T11:22:22.990Z,15.07
2019-05-18T11:24:54.044Z,14.82
2019-05-18T11:27:25.163Z,14.56
2019-05-18T11:29:56.276Z,14.32
2019-05-18T11:32:28.972Z,14.29
2019-05-18T11:35:01.628Z,14.30
2019-05-18T11:37:32.668Z,14.38
2019-05-18T11:40:08.374Z,14.45
2019-05-18T11:42:39.446Z,14.54
2019-05-18T11:45:13.297Z,14.62
2019-05-18T11:47:46.064Z,14.69
2019-05-18T11:50:17.820Z,14.74
2019-05-18T11:52:48.873Z,14.78
2019-05-18T11:55:20.034Z,14.86
2019-05-18T11:57:51.206Z,14.92
2019-05-18T12:00:22.744Z,15.07
2019-05-18T12:02:53.869Z,15.20
2019-05-18T12:05:24.906Z,15.35
2019-05-18T12:07:56.088Z,15.49
2019-05-18T12:10:27.393Z,15.67
2019-05-18T12:13:02.376Z,15.83
2019-05-18T12:15:33.511Z,15.91
2019-05-18T12:18:06.136Z,15.99
2019-05-18T12:20:37.464Z,16.10
2019-05-18T12:23:10.994Z,16.30
2019-05-18T12:25:42.926Z,16.56
2019-05-18T12:28:14.025Z,16.80
2019-05-18T12:30:45.092Z,16.98
2019-05-18T12:33:17.846Z,16.97
2019-05-18T12:35:49.106Z,16.79
2019-05-18T12:38:20.308Z,16.90
2019-05-18T12:40:53.040Z,16.85
2019-05-18T12:43:24.142Z,16.88
2019-05-18T12:45:55.218Z,16.80
2019-05-18T12:48:28.164Z,16.60
2019-05-18T12:50:59.366Z,16.53
2019-05-18T12:53:30.604Z,16.58
2019-05-18T12:56:13.025Z,16.46
2019-05-18T12:58:43.944Z,16.56
2019-05-18T13:01:17.311Z,16.61
2019-05-18T13:03:50.269Z,16.70
2019-05-18T13:06:43.178Z,16.76
2019-05-18T13:09:08.101Z,16.74
2019-05-18T13:11:34.936Z,16.82
2019-05-18T13:14:06.045Z,16.90
2019-05-18T13:16:37.222Z,16.66
2019-05-18T13:19:10.296Z,16.67
2019-05-18T13:21:43.102Z,16.67
2019-05-18T13:24:14.932Z,16.51
2019-05-18T13:26:47.587Z,16.42
2019-05-18T13:29:18.772Z,16.37
2019-05-18T13:31:54.038Z,16.33
2019-05-18T13:34:26.075Z,16.17
2019-05-18T13:37:09.083Z,16.10
2019-05-18T13:39:40.544Z,16.07
2019-05-18T13:42:13.301Z,16.02
2019-05-18T13:44:46.047Z,16.03
2019-05-18T13:47:17.201Z,15.87
2019-05-18T13:49:49.171Z,15.86
2019-05-18T13:52:21.891Z,15.82
2019-05-18T13:55:03.949Z,15.76
2019-05-18T13:57:25.796Z,15.76
2019-05-18T13:59:56.895Z,15.83
2019-05-18T14:02:27.994Z,15.85
2019-05-18T14:04:59.943Z,15.87
2019-05-18T14:07:31.045Z,15.88
2019-05-18T14:10:05.150Z,16.04
2019-05-18T14:12:36.198Z,16.06
2019-05-18T14:15:07.813Z,16.03
2019-05-18T14:17:38.908Z,16.18
2019-05-18T14:20:11.286Z,16.23
2019-05-18T14:22:43.803Z,16.21
2019-05-18T14:25:19.699Z,16.22
2019-05-18T14:27:50.994Z,16.35
2019-05-18T14:30:25.275Z,16.34
2019-05-18T14:32:56.472Z,16.39
2019-05-18T14:35:27.569Z,16.44
2019-05-18T14:38:00.275Z,16.50
2019-05-18T14:40:31.328Z,16.55
2019-05-18T14:43:02.500Z,16.56
2019-05-18T14:45:33.566Z,16.50
2019-05-18T14:48:04.712Z,16.54
2019-05-18T14:50:37.430Z,16.63
2019-05-18T14:53:09.368Z,16.74
2019-05-18T14:55:40.414Z,16.82
2019-05-18T14:58:13.370Z,16.92
2019-05-18T15:00:44.798Z,16.99
2019-05-18T15:03:17.554Z,17.07
2019-05-18T15:05:53.933Z,17.18
2019-05-18T15:08:45.585Z,17.31
2019-05-18T15:11:17.414Z,17.43
2019-05-18T15:13:57.525Z,17.50
2019-05-18T15:16:53.144Z,17.59
2019-05-18T15:19:25.506Z,17.58
2019-05-18T15:21:57.961Z,17.70
2019-05-18T15:24:35.301Z,17.83
2019-05-18T15:27:07.941Z,18.03
2019-05-18T15:29:55.983Z,18.14
2019-05-18T15:33:01.111Z,18.19
2019-05-18T15:35:29.197Z,18.10
2019-05-18T15:38:08.913Z,18.11
2019-05-18T15:40:52.857Z,18.02
2019-05-18T15:46:54.317Z,18.21
2019-05-18T15:49:20.336Z,18.22
2019-05-18T15:54:44.685Z,18.51
2019-05-18T15:57:16.532Z,18.43
2019-05-18T15:59:51.312Z,18.45
2019-05-18T16:02:23.994Z,18.49
2019-05-18T16:04:56.663Z,18.53
2019-05-18T16:08:24.205Z,18.49
2019-05-18T16:10:18.284Z,18.40
2019-05-18T16:12:50.285Z,18.48
2019-05-18T16:15:29.335Z,18.33
2019-05-18T16:18:03.294Z,18.24
2019-05-18T16:20:47.558Z,18.26
2019-05-18T16:23:22.365Z,18.21
2019-05-18T16:25:53.513Z,18.22
2019-05-18T16:28:37.460Z,18.24
2019-05-18T16:31:10.324Z,18.17
2019-05-18T16:33:41.687Z,18.13
2019-05-18T16:36:15.872Z,17.61
2019-05-18T16:38:52.854Z,17.22
2019-05-18T16:41:45.424Z,17.04
2019-05-18T16:44:18.028Z,16.83
2019-05-18T16:46:41.447Z,16.84
2019-05-18T16:49:14.085Z,16.79
2019-05-18T16:51:52.813Z,16.67
2019-05-18T16:54:25.111Z,16.37
2019-05-18T16:57:05.583Z,16.42
2019-05-18T16:59:46.306Z,16.38
2019-05-18T17:02:30.666Z,16.27
2019-05-18T17:04:50.404Z,16.32
2019-05-18T17:07:27.247Z,16.27
2019-05-18T17:10:03.647Z,16.22
2019-05-18T17:12:44.067Z,16.13
2019-05-18T17:15:26.324Z,16.13
2019-05-18T17:18:00.825Z,16.06
2019-05-18T17:20:37.499Z,16.07
2019-05-18T17:23:08.551Z,15.83
2019-05-18T17:25:44.009Z,15.90
2019-05-18T17:28:15.629Z,15.85
2019-05-18T17:30:51.150Z,15.77
2019-05-18T17:33:22.434Z,15.75
2019-05-18T17:36:00.438Z,15.85
2019-05-18T17:38:31.389Z,15.79
2019-05-18T17:41:10.979Z,15.76
2019-05-18T17:44:32.782Z,15.71
2019-05-18T17:46:21.002Z,15.76
2019-05-18T17:49:25.613Z,15.60
2019-05-18T17:51:44.211Z,15.73
2019-05-18T17:54:16.933Z,15.62
2019-05-18T17:56:48.080Z,15.53
2019-05-18T17:59:22.135Z,15.53
2019-05-18T18:01:54.831Z,15.52
2019-05-18T18:04:25.882Z,15.48
2019-05-18T18:06:56.990Z,15.43
2019-05-18T18:09:28.047Z,15.46
2019-05-18T18:11:59.194Z,15.53
2019-05-18T18:14:30.394Z,15.56
2019-05-18T18:17:02.617Z,15.55
2019-05-18T18:19:35.250Z,15.57
2019-05-18T18:22:06.448Z,15.53
2019-05-18T18:24:37.537Z,15.58
2019-05-18T18:27:24.070Z,15.61
2019-05-18T18:29:41.658Z,15.59
2019-05-18T18:32:13.915Z,15.62
2019-05-18T18:34:45.342Z,15.58
2019-05-18T18:37:19.686Z,15.54
2019-05-18T18:39:51.655Z,15.46
2019-05-18T18:42:24.563Z,15.45
2019-05-18T18:44:55.837Z,15.33
2019-05-18T18:47:29.468Z,15.25
2019-05-18T18:50:01.017Z,15.23
2019-05-18T18:52:32.192Z,15.20
2019-05-18T18:55:06.387Z,15.20
2019-05-18T18:57:41.703Z,15.17
2019-05-18T19:00:12.117Z,15.21
2019-05-18T19:02:44.091Z,15.20
2019-05-18T19:05:15.474Z,15.12
2019-05-18T19:07:46.890Z,15.08
2019-05-18T19:10:17.990Z,15.06
2019-05-18T19:12:49.080Z,15.03
2019-05-18T19:15:20.340Z,15.06
2019-05-18T19:17:52.223Z,15.06
2019-05-18T19:20:23.409Z,15.08
2019-05-18T19:22:54.480Z,15.13
2019-05-18T19:25:25.530Z,15.11
2019-05-18T19:27:56.647Z,15.11
2019-05-18T19:30:27.874Z,15.01
2019-05-18T19:32:59.808Z,14.93
2019-05-18T19:35:30.879Z,14.93
2019-05-18T19:38:03.642Z,14.93
2019-05-18T19:40:34.757Z,14.82
2019-05-18T19:43:05.827Z,14.90
2019-05-18T19:45:36.894Z,14.89
2019-05-18T19:48:08.846Z,14.87
2019-05-18T19:50:40.004Z,14.92
2019-05-18T19:53:11.095Z,14.96
2019-05-18T19:55:42.238Z,14.98
2019-05-18T19:58:16.414Z,15.01
2019-05-18T20:00:47.605Z,15.04
2019-05-18T20:03:18.749Z,15.11
2019-05-18T20:05:49.843Z,15.13
2019-05-18T20:08:21.034Z,15.10
2019-05-18T20:10:52.440Z,15.10
2019-05-18T20:13:23.903Z,15.11
2019-05-18T20:15:55.126Z,15.01
2019-05-18T20:18:26.756Z,14.96
2019-05-18T20:20:59.468Z,15.01
2019-05-18T20:23:30.989Z,15.02
2019-05-18T20:26:02.141Z,15.02
2019-05-18T20:28:33.498Z,15.00
2019-05-18T20:31:05.029Z,15.02
2019-05-18T20:33:37.817Z,15.02
2019-05-18T20:36:09.101Z,14.96
2019-05-18T20:38:40.367Z,14.90
2019-05-18T20:44:42.332Z,14.72
2019-05-18T20:47:13.628Z,14.64
2019-05-18T20:49:45.792Z,14.70
2019-05-18T20:52:17.144Z,14.74
2019-05-18T20:54:50.339Z,14.77
2019-05-18T20:57:21.609Z,14.77
2019-05-18T20:59:59.797Z,14.76
2019-05-18T21:02:28.344Z,14.76
2019-05-18T21:04:59.581Z,14.73
2019-05-18T21:07:31.176Z,14.65
2019-05-18T21:10:02.683Z,14.68
2019-05-18T21:12:35.514Z,14.63
2019-05-18T21:15:08.390Z,14.60
2019-05-18T21:17:39.636Z,14.65
2019-05-18T21:20:12.313Z,14.69
2019-05-18T21:22:44.987Z,14.74
2019-05-18T21:25:16.202Z,14.73
2019-05-18T21:27:47.431Z,14.73
2019-05-18T21:30:20.453Z,14.66
2019-05-18T21:32:51.651Z,14.68
2019-05-18T21:35:22.997Z,14.62
2019-05-18T21:37:54.227Z,14.64
2019-05-18T21:40:26.346Z,14.68
2019-05-18T21:42:57.793Z,14.69
2019-05-18T21:45:29.119Z,14.67
2019-05-18T21:48:00.259Z,14.67
2019-05-18T21:50:31.517Z,14.64
2019-05-18T21:53:02.735Z,14.62
2019-05-18T21:55:34.093Z,14.60
2019-05-18T21:58:06.781Z,14.62
2019-05-18T22:00:41.159Z,14.63
2019-05-18T22:03:12.452Z,14.58
2019-05-18T22:05:44.621Z,14.50
2019-05-18T22:08:15.869Z,14.41
2019-05-18T22:10:47.063Z,14.33
2019-05-18T22:13:18.279Z,14.28
2019-05-18T22:15:50.447Z,14.25
2019-05-18T22:18:24.700Z,14.23
2019-05-18T22:20:55.414Z,14.22
2019-05-18T22:23:26.454Z,14.18
2019-05-18T22:25:59.276Z,14.19
2019-05-18T22:28:30.408Z,14.15
2019-05-18T22:31:01.798Z,14.05
2019-05-18T22:33:32.937Z,13.96
2019-05-18T22:36:04.249Z,13.95
2019-05-18T22:38:35.351Z,13.94
2019-05-18T22:41:08.871Z,13.97
2019-05-18T22:43:40.348Z,14.02
2019-05-18T22:46:12.181Z,14.03
2019-05-18T22:48:44.905Z,14.05
2019-05-18T22:51:17.749Z,14.07
2019-05-18T22:53:49.099Z,14.07
2019-05-18T22:56:20.366Z,14.08
2019-05-18T22:58:51.591Z,14.08
2019-05-18T23:01:25.340Z,14.08
2019-05-18T23:03:56.441Z,14.04
2019-05-18T23:06:28.586Z,14.01
2019-05-18T23:08:59.982Z,14.00
2019-05-18T23:11:31.331Z,13.99
2019-05-18T23:14:02.802Z,13.95
2019-05-18T23:16:34.725Z,13.95
2019-05-18T23:19:07.618Z,13.94
2019-05-18T23:21:38.857Z,13.93
2019-05-18T23:24:10.037Z,13.92
2019-05-18T23:26:41.135Z,13.92
2019-05-18T23:29:13.841Z,13.93
2019-05-18T23:31:44.949Z,13.93
2019-05-18T23:34:16.154Z,13.92
2019-05-18T23:36:48.836Z,13.90
2019-05-18T23:39:19.895Z,13.90
2019-05-18T23:41:51.120Z,13.89
2019-05-18T23:44:22.158Z,13.87
2019-05-18T23:46:53.230Z,13.85
2019-05-18T23:49:24.275Z,13.83
2019-05-18T23:51:56.428Z,13.82
2019-05-18T23:54:29.018Z,13.81
2019-05-18T23:57:00.078Z,13.80
2019-05-18T23:59:31.211Z,13.79
